sensor_id;sensor_type;location;lat;lon;timestamp;pressure;altitude;pressure_sealevel;temperature;humidity
31357;BME280;60001;48.404;11.738;2023-11-19T00:00:46;96394.25;;;5.70;92.43
31357;BME280;60001;48.404;11.738;2023-11-19T00:02:17;96388.47;;;5.62;92.67
31357;BME280;60001;48.404;11.738;2023-11-19T00:03:49;96383.31;;;5.73;92.64
31357;BME280;60001;48.404;11.738;2023-11-19T00:05:20;96373.84;;;5.72;92.20
31357;BME280;60001;48.404;11.738;2023-11-19T00:06:51;96379.16;;;5.66;92.86
31357;BME280;60001;48.404;11.738;2023-11-19T00:08:23;96373.78;;;5.61;93.43
31357;BME280;60001;48.404;11.738;2023-11-19T00:09:55;96367.75;;;5.78;92.70
31357;BME280;60001;48.404;11.738;2023-11-19T00:11:27;96368.53;;;5.61;93.63
31357;BME280;60001;48.404;11.738;2023-11-19T00:12:58;96361.06;;;5.64;93.68
31357;BME280;60001;48.404;11.738;2023-11-19T00:14:30;96356.84;;;5.63;94.18
31357;BME280;60001;48.404;11.738;2023-11-19T00:16:02;96339.13;;;5.77;93.90
31357;BME280;60001;48.404;11.738;2023-11-19T00:17:34;96336.22;;;5.85;93.06
31357;BME280;60001;48.404;11.738;2023-11-19T00:19:05;96337.03;;;5.86;93.11
31357;BME280;60001;48.404;11.738;2023-11-19T00:20:39;96336.56;;;5.89;93.13
31357;BME280;60001;48.404;11.738;2023-11-19T00:22:09;96336.19;;;5.92;93.21
31357;BME280;60001;48.404;11.738;2023-11-19T00:23:41;96340.22;;;5.69;93.51
31357;BME280;60001;48.404;11.738;2023-11-19T00:25:12;96341.16;;;5.75;93.38
31357;BME280;60001;48.404;11.738;2023-11-19T00:26:44;96330.03;;;5.80;93.48
31357;BME280;60001;48.404;11.738;2023-11-19T00:28:14;96329.50;;;5.89;93.31
31357;BME280;60001;48.404;11.738;2023-11-19T00:29:47;96320.59;;;5.78;92.81
31357;BME280;60001;48.404;11.738;2023-11-19T00:31:19;96323.19;;;5.97;92.90
31357;BME280;60001;48.404;11.738;2023-11-19T00:32:51;96322.84;;;5.93;92.74
31357;BME280;60001;48.404;11.738;2023-11-19T00:34:21;96325.25;;;5.95;92.63
31357;BME280;60001;48.404;11.738;2023-11-19T00:35:53;96323.63;;;5.75;93.66
31357;BME280;60001;48.404;11.738;2023-11-19T00:37:24;96325.28;;;5.88;93.21
31357;BME280;60001;48.404;11.738;2023-11-19T00:38:56;96326.03;;;5.95;93.45
31357;BME280;60001;48.404;11.738;2023-11-19T00:40:27;96325.06;;;5.90;93.37
31357;BME280;60001;48.404;11.738;2023-11-19T00:41:59;96325.16;;;5.83;94.09
31357;BME280;60001;48.404;11.738;2023-11-19T00:43:30;96317.97;;;5.78;93.79
31357;BME280;60001;48.404;11.738;2023-11-19T00:45:02;96314.00;;;5.88;94.02
31357;BME280;60001;48.404;11.738;2023-11-19T00:46:34;96318.97;;;5.96;93.64
31357;BME280;60001;48.404;11.738;2023-11-19T00:48:06;96314.75;;;5.95;93.46
31357;BME280;60001;48.404;11.738;2023-11-19T00:49:37;96320.72;;;6.02;93.25
31357;BME280;60001;48.404;11.738;2023-11-19T00:51:11;96308.25;;;5.97;93.69
31357;BME280;60001;48.404;11.738;2023-11-19T00:52:42;96310.88;;;5.97;93.11
31357;BME280;60001;48.404;11.738;2023-11-19T00:54:14;96306.34;;;6.04;92.68
31357;BME280;60001;48.404;11.738;2023-11-19T00:55:44;96295.44;;;6.08;91.91
31357;BME280;60001;48.404;11.738;2023-11-19T00:57:16;96304.41;;;6.00;92.81
31357;BME280;60001;48.404;11.738;2023-11-19T00:58:47;96295.63;;;5.94;93.19
31357;BME280;60001;48.404;11.738;2023-11-19T01:00:19;96291.78;;;6.09;92.94
31357;BME280;60001;48.404;11.738;2023-11-19T01:01:51;96282.06;;;5.97;92.41
31357;BME280;60001;48.404;11.738;2023-11-19T01:03:22;96288.78;;;5.93;93.48
31357;BME280;60001;48.404;11.738;2023-11-19T01:04:53;96290.44;;;5.88;93.65
31357;BME280;60001;48.404;11.738;2023-11-19T01:06:30;96285.38;;;6.04;93.43
31357;BME280;60001;48.404;11.738;2023-11-19T01:08:02;96287.13;;;6.11;93.21
31357;BME280;60001;48.404;11.738;2023-11-19T01:09:34;96283.28;;;6.13;92.80
31357;BME280;60001;48.404;11.738;2023-11-19T01:11:06;96286.78;;;6.07;93.25
31357;BME280;60001;48.404;11.738;2023-11-19T01:12:37;96283.88;;;5.97;93.82
31357;BME280;60001;48.404;11.738;2023-11-19T01:14:09;96268.06;;;6.03;93.99
31357;BME280;60001;48.404;11.738;2023-11-19T01:15:39;96269.19;;;5.96;94.25
31357;BME280;60001;48.404;11.738;2023-11-19T01:17:13;96273.66;;;6.07;92.89
31357;BME280;60001;48.404;11.738;2023-11-19T01:18:43;96278.22;;;6.00;93.31
31357;BME280;60001;48.404;11.738;2023-11-19T01:20:15;96275.84;;;6.10;93.72
31357;BME280;60001;48.404;11.738;2023-11-19T01:21:46;96260.09;;;6.10;94.00
31357;BME280;60001;48.404;11.738;2023-11-19T01:23:18;96270.34;;;6.00;94.25
31357;BME280;60001;48.404;11.738;2023-11-19T01:24:49;96262.03;;;6.03;94.09
31357;BME280;60001;48.404;11.738;2023-11-19T01:26:20;96263.19;;;6.07;94.08
31357;BME280;60001;48.404;11.738;2023-11-19T01:27:52;96247.19;;;5.97;94.63
31357;BME280;60001;48.404;11.738;2023-11-19T01:29:22;96260.00;;;6.05;94.41
31357;BME280;60001;48.404;11.738;2023-11-19T01:30:54;96258.38;;;6.04;94.36
31357;BME280;60001;48.404;11.738;2023-11-19T01:32:26;96261.34;;;6.08;94.35
31357;BME280;60001;48.404;11.738;2023-11-19T01:33:58;96257.25;;;6.12;94.75
31357;BME280;60001;48.404;11.738;2023-11-19T01:35:29;96261.31;;;6.26;94.00
31357;BME280;60001;48.404;11.738;2023-11-19T01:37:03;96252.59;;;6.25;94.12
31357;BME280;60001;48.404;11.738;2023-11-19T01:38:34;96236.84;;;6.02;94.23
31357;BME280;60001;48.404;11.738;2023-11-19T01:40:06;96255.00;;;6.15;94.60
31357;BME280;60001;48.404;11.738;2023-11-19T01:41:41;96254.81;;;6.28;94.13
31357;BME280;60001;48.404;11.738;2023-11-19T01:43:31;96251.84;;;6.37;92.72
31357;BME280;60001;48.404;11.738;2023-11-19T01:45:02;96251.38;;;6.28;93.59
31357;BME280;60001;48.404;11.738;2023-11-19T01:46:35;96242.94;;;6.26;93.38
31357;BME280;60001;48.404;11.738;2023-11-19T01:48:08;96241.91;;;6.27;93.45
31357;BME280;60001;48.404;11.738;2023-11-19T01:49:42;96241.22;;;6.31;93.60
31357;BME280;60001;48.404;11.738;2023-11-19T01:51:13;96244.88;;;6.30;94.13
31357;BME280;60001;48.404;11.738;2023-11-19T01:52:47;96235.78;;;6.33;94.02
31357;BME280;60001;48.404;11.738;2023-11-19T01:54:18;96240.78;;;6.35;93.74
31357;BME280;60001;48.404;11.738;2023-11-19T01:55:51;96229.16;;;6.30;93.68
31357;BME280;60001;48.404;11.738;2023-11-19T01:57:23;96227.31;;;6.31;93.29
31357;BME280;60001;48.404;11.738;2023-11-19T01:58:55;96233.63;;;6.42;93.34
31357;BME280;60001;48.404;11.738;2023-11-19T02:00:28;96231.56;;;6.44;93.06
31357;BME280;60001;48.404;11.738;2023-11-19T02:02:00;96226.78;;;6.41;93.54
31357;BME280;60001;48.404;11.738;2023-11-19T02:03:33;96235.53;;;6.46;93.33
31357;BME280;60001;48.404;11.738;2023-11-19T02:05:05;96233.81;;;6.28;93.68
31357;BME280;60001;48.404;11.738;2023-11-19T02:06:40;96220.03;;;6.21;94.25
31357;BME280;60001;48.404;11.738;2023-11-19T02:08:11;96223.47;;;6.34;94.18
31357;BME280;60001;48.404;11.738;2023-11-19T02:09:44;96216.16;;;6.36;93.46
31357;BME280;60001;48.404;11.738;2023-11-19T02:11:14;96218.53;;;6.37;94.16
31357;BME280;60001;48.404;11.738;2023-11-19T02:12:46;96204.31;;;6.45;93.90
31357;BME280;60001;48.404;11.738;2023-11-19T02:14:18;96208.97;;;6.43;94.11
31357;BME280;60001;48.404;11.738;2023-11-19T02:15:50;96202.34;;;6.52;94.33
31357;BME280;60001;48.404;11.738;2023-11-19T02:17:27;96199.28;;;6.43;94.28
31357;BME280;60001;48.404;11.738;2023-11-19T02:19:01;96189.16;;;6.47;94.41
31357;BME280;60001;48.404;11.738;2023-11-19T02:20:31;96187.19;;;6.30;95.48
31357;BME280;60001;48.404;11.738;2023-11-19T02:22:03;96182.31;;;6.34;95.38
31357;BME280;60001;48.404;11.738;2023-11-19T02:23:34;96173.41;;;6.35;95.05
31357;BME280;60001;48.404;11.738;2023-11-19T02:25:09;96172.81;;;6.45;95.40
31357;BME280;60001;48.404;11.738;2023-11-19T02:26:50;96174.31;;;6.52;94.94
31357;BME280;60001;48.404;11.738;2023-11-19T02:28:28;96171.47;;;6.54;94.76
31357;BME280;60001;48.404;11.738;2023-11-19T02:29:59;96177.41;;;6.61;94.46
31357;BME280;60001;48.404;11.738;2023-11-19T02:31:31;96172.94;;;6.62;94.33
31357;BME280;60001;48.404;11.738;2023-11-19T02:33:02;96173.75;;;6.62;94.21
31357;BME280;60001;48.404;11.738;2023-11-19T02:34:35;96167.47;;;6.63;94.15
31357;BME280;60001;48.404;11.738;2023-11-19T02:36:08;96170.66;;;6.65;94.61
31357;BME280;60001;48.404;11.738;2023-11-19T02:37:40;96164.50;;;6.59;94.42
31357;BME280;60001;48.404;11.738;2023-11-19T02:39:10;96157.78;;;6.52;94.72
31357;BME280;60001;48.404;11.738;2023-11-19T02:40:43;96162.22;;;6.63;95.10
31357;BME280;60001;48.404;11.738;2023-11-19T02:42:14;96167.47;;;6.63;94.96
31357;BME280;60001;48.404;11.738;2023-11-19T02:43:47;96157.09;;;6.68;94.60
31357;BME280;60001;48.404;11.738;2023-11-19T02:45:19;96156.06;;;6.69;94.36
31357;BME280;60001;48.404;11.738;2023-11-19T02:46:52;96147.41;;;6.69;94.46
31357;BME280;60001;48.404;11.738;2023-11-19T02:48:23;96147.94;;;6.71;94.70
31357;BME280;60001;48.404;11.738;2023-11-19T02:49:55;96147.41;;;6.69;94.87
31357;BME280;60001;48.404;11.738;2023-11-19T02:51:26;96150.00;;;6.69;95.26
31357;BME280;60001;48.404;11.738;2023-11-19T02:52:58;96148.19;;;6.69;95.16
31357;BME280;60001;48.404;11.738;2023-11-19T02:54:29;96150.81;;;6.69;95.32
31357;BME280;60001;48.404;11.738;2023-11-19T02:56:01;96153.53;;;6.74;95.25
31357;BME280;60001;48.404;11.738;2023-11-19T02:57:36;96143.03;;;6.74;95.11
31357;BME280;60001;48.404;11.738;2023-11-19T02:59:09;96138.81;;;6.73;95.77
31357;BME280;60001;48.404;11.738;2023-11-19T03:04:11;96125.94;;;6.72;96.01
31357;BME280;60001;48.404;11.738;2023-11-19T03:05:47;96117.50;;;6.70;96.40
31357;BME280;60001;48.404;11.738;2023-11-19T03:07:18;96126.59;;;6.79;96.15
31357;BME280;60001;48.404;11.738;2023-11-19T03:08:50;96131.47;;;6.87;95.93
31357;BME280;60001;48.404;11.738;2023-11-19T03:10:21;96115.97;;;6.85;95.63
31357;BME280;60001;48.404;11.738;2023-11-19T03:11:52;96115.06;;;6.80;96.40
31357;BME280;60001;48.404;11.738;2023-11-19T03:13:23;96116.66;;;6.81;96.75
31357;BME280;60001;48.404;11.738;2023-11-19T03:14:56;96118.34;;;6.87;96.78
31357;BME280;60001;48.404;11.738;2023-11-19T03:16:27;96112.78;;;6.83;96.78
31357;BME280;60001;48.404;11.738;2023-11-19T03:17:58;96128.84;;;6.87;96.36
31357;BME280;60001;48.404;11.738;2023-11-19T03:19:29;96130.44;;;6.88;96.11
31357;BME280;60001;48.404;11.738;2023-11-19T03:21:01;96123.41;;;6.89;96.47
31357;BME280;60001;48.404;11.738;2023-11-19T03:22:32;96126.81;;;6.89;96.64
31357;BME280;60001;48.404;11.738;2023-11-19T03:24:05;96125.31;;;6.93;96.64
31357;BME280;60001;48.404;11.738;2023-11-19T03:25:35;96125.53;;;6.92;97.00
31357;BME280;60001;48.404;11.738;2023-11-19T03:27:07;96120.06;;;6.93;96.97
31357;BME280;60001;48.404;11.738;2023-11-19T03:28:38;96118.16;;;6.89;97.13
31357;BME280;60001;48.404;11.738;2023-11-19T03:30:12;96116.53;;;6.87;97.33
31357;BME280;60001;48.404;11.738;2023-11-19T03:31:43;96121.22;;;6.85;97.94
31357;BME280;60001;48.404;11.738;2023-11-19T03:33:15;96115.03;;;6.92;98.18
31357;BME280;60001;48.404;11.738;2023-11-19T03:34:45;96113.78;;;6.94;97.99
31357;BME280;60001;48.404;11.738;2023-11-19T03:36:17;96122.00;;;6.98;98.00
31357;BME280;60001;48.404;11.738;2023-11-19T03:37:48;96120.16;;;6.98;97.93
31357;BME280;60001;48.404;11.738;2023-11-19T03:39:20;96117.84;;;7.02;98.38
31357;BME280;60001;48.404;11.738;2023-11-19T03:40:50;96120.28;;;7.03;97.93
31357;BME280;60001;48.404;11.738;2023-11-19T03:42:22;96125.28;;;7.05;98.58
31357;BME280;60001;48.404;11.738;2023-11-19T03:43:53;96117.41;;;7.05;98.41
31357;BME280;60001;48.404;11.738;2023-11-19T03:45:27;96126.06;;;7.05;98.39
31357;BME280;60001;48.404;11.738;2023-11-19T03:46:58;96112.94;;;7.05;98.82
31357;BME280;60001;48.404;11.738;2023-11-19T03:48:29;96121.88;;;7.04;98.38
31357;BME280;60001;48.404;11.738;2023-11-19T03:50:00;96121.06;;;7.04;99.05
31357;BME280;60001;48.404;11.738;2023-11-19T03:51:32;96113.28;;;7.09;98.78
31357;BME280;60001;48.404;11.738;2023-11-19T03:53:04;96115.44;;;7.12;98.89
31357;BME280;60001;48.404;11.738;2023-11-19T03:54:36;96113.38;;;7.14;98.78
31357;BME280;60001;48.404;11.738;2023-11-19T03:56:07;96111.88;;;7.18;98.93
31357;BME280;60001;48.404;11.738;2023-11-19T03:57:40;96108.47;;;7.18;99.04
31357;BME280;60001;48.404;11.738;2023-11-19T03:59:11;96111.88;;;7.18;99.02
31357;BME280;60001;48.404;11.738;2023-11-19T04:00:44;96110.84;;;7.19;98.85
31357;BME280;60001;48.404;11.738;2023-11-19T04:02:16;96111.09;;;7.18;99.08
31357;BME280;60001;48.404;11.738;2023-11-19T04:03:48;96106.94;;;7.22;99.30
31357;BME280;60001;48.404;11.738;2023-11-19T04:05:18;96108.31;;;7.24;99.55
31357;BME280;60001;48.404;11.738;2023-11-19T04:06:50;96104.66;;;7.25;99.34
31357;BME280;60001;48.404;11.738;2023-11-19T04:08:21;96106.25;;;7.26;99.67
31357;BME280;60001;48.404;11.738;2023-11-19T04:09:53;96097.81;;;7.24;100.00
31357;BME280;60001;48.404;11.738;2023-11-19T04:11:23;96099.41;;;7.25;99.61
31357;BME280;60001;48.404;11.738;2023-11-19T04:12:55;96106.56;;;7.30;100.00
31357;BME280;60001;48.404;11.738;2023-11-19T04:14:26;96112.41;;;7.32;100.00
31357;BME280;60001;48.404;11.738;2023-11-19T04:15:59;96107.16;;;7.32;100.00
31357;BME280;60001;48.404;11.738;2023-11-19T04:17:31;96106.41;;;7.36;100.00
31357;BME280;60001;48.404;11.738;2023-11-19T04:19:02;96111.13;;;7.34;100.00
31357;BME280;60001;48.404;11.738;2023-11-19T04:20:34;96100.63;;;7.34;100.00
31357;BME280;60001;48.404;11.738;2023-11-19T04:22:04;96105.28;;;7.44;100.00
31357;BME280;60001;48.404;11.738;2023-11-19T04:23:36;96105.34;;;7.49;100.00
31357;BME280;60001;48.404;11.738;2023-11-19T04:25:08;96095.63;;;7.50;100.00
31357;BME280;60001;48.404;11.738;2023-11-19T04:26:40;96090.53;;;7.43;100.00
31357;BME280;60001;48.404;11.738;2023-11-19T04:28:12;96103.59;;;7.55;100.00
31357;BME280;60001;48.404;11.738;2023-11-19T04:29:44;96107.56;;;7.57;100.00
31357;BME280;60001;48.404;11.738;2023-11-19T04:31:17;96100.81;;;7.61;100.00
31357;BME280;60001;48.404;11.738;2023-11-19T04:32:49;96111.66;;;7.65;100.00
31357;BME280;60001;48.404;11.738;2023-11-19T04:34:21;96099.09;;;7.67;100.00
31357;BME280;60001;48.404;11.738;2023-11-19T04:35:51;96110.25;;;7.74;100.00
31357;BME280;60001;48.404;11.738;2023-11-19T04:37:23;96106.66;;;7.80;100.00
31357;BME280;60001;48.404;11.738;2023-11-19T04:38:55;96102.28;;;7.86;100.00
31357;BME280;60001;48.404;11.738;2023-11-19T04:40:26;96103.63;;;7.88;100.00
31357;BME280;60001;48.404;11.738;2023-11-19T04:41:57;96100.75;;;7.90;100.00
31357;BME280;60001;48.404;11.738;2023-11-19T04:43:28;96099.41;;;7.87;100.00
31357;BME280;60001;48.404;11.738;2023-11-19T04:45:00;96096.94;;;7.97;100.00
31357;BME280;60001;48.404;11.738;2023-11-19T04:46:33;96102.56;;;8.06;100.00
31357;BME280;60001;48.404;11.738;2023-11-19T04:48:04;96099.78;;;8.13;100.00
31357;BME280;60001;48.404;11.738;2023-11-19T04:49:40;96100.38;;;8.15;100.00
31357;BME280;60001;48.404;11.738;2023-11-19T04:51:11;96102.25;;;8.19;100.00
31357;BME280;60001;48.404;11.738;2023-11-19T04:52:42;96102.34;;;8.24;100.00
31357;BME280;60001;48.404;11.738;2023-11-19T04:54:15;96103.13;;;8.25;100.00
31357;BME280;60001;48.404;11.738;2023-11-19T04:55:47;96104.31;;;8.34;100.00
31357;BME280;60001;48.404;11.738;2023-11-19T04:57:18;96105.34;;;8.33;100.00
31357;BME280;60001;48.404;11.738;2023-11-19T04:58:49;96111.75;;;8.37;100.00
31357;BME280;60001;48.404;11.738;2023-11-19T05:00:20;96116.06;;;8.43;100.00
31357;BME280;60001;48.404;11.738;2023-11-19T05:01:54;96097.22;;;8.35;100.00
31357;BME280;60001;48.404;11.738;2023-11-19T05:03:25;96108.88;;;8.39;100.00
31357;BME280;60001;48.404;11.738;2023-11-19T05:04:57;96108.25;;;8.48;100.00
31357;BME280;60001;48.404;11.738;2023-11-19T05:06:29;96114.59;;;8.52;100.00
31357;BME280;60001;48.404;11.738;2023-11-19T05:08:00;96091.94;;;8.51;100.00
31357;BME280;60001;48.404;11.738;2023-11-19T05:09:32;96105.41;;;8.55;100.00
31357;BME280;60001;48.404;11.738;2023-11-19T05:11:03;96103.66;;;8.61;100.00
31357;BME280;60001;48.404;11.738;2023-11-19T05:12:36;96105.81;;;8.64;100.00
31357;BME280;60001;48.404;11.738;2023-11-19T05:14:07;96109.78;;;8.66;100.00
31357;BME280;60001;48.404;11.738;2023-11-19T05:15:39;96108.00;;;8.72;100.00
31357;BME280;60001;48.404;11.738;2023-11-19T05:17:11;96107.50;;;8.75;100.00
31357;BME280;60001;48.404;11.738;2023-11-19T05:18:43;96104.34;;;8.73;100.00
31357;BME280;60001;48.404;11.738;2023-11-19T05:20:14;96109.09;;;8.76;100.00
31357;BME280;60001;48.404;11.738;2023-11-19T05:21:46;96101.41;;;8.69;100.00
31357;BME280;60001;48.404;11.738;2023-11-19T05:23:17;96101.53;;;8.79;100.00
31357;BME280;60001;48.404;11.738;2023-11-19T05:24:49;96095.63;;;8.72;100.00
31357;BME280;60001;48.404;11.738;2023-11-19T05:26:21;96095.22;;;8.81;100.00
31357;BME280;60001;48.404;11.738;2023-11-19T05:27:53;96091.50;;;8.76;100.00
31357;BME280;60001;48.404;11.738;2023-11-19T05:29:24;96097.59;;;8.82;100.00
31357;BME280;60001;48.404;11.738;2023-11-19T05:30:56;96097.06;;;8.80;100.00
31357;BME280;60001;48.404;11.738;2023-11-19T05:32:28;96098.63;;;8.81;100.00
31357;BME280;60001;48.404;11.738;2023-11-19T05:34:00;96091.59;;;8.87;100.00
31357;BME280;60001;48.404;11.738;2023-11-19T05:35:31;96090.56;;;8.88;100.00
31357;BME280;60001;48.404;11.738;2023-11-19T05:37:03;96095.03;;;8.87;100.00
31357;BME280;60001;48.404;11.738;2023-11-19T05:38:36;96088.47;;;8.90;100.00
31357;BME280;60001;48.404;11.738;2023-11-19T05:40:08;96103.59;;;8.99;100.00
31357;BME280;60001;48.404;11.738;2023-11-19T05:41:44;96107.50;;;8.97;100.00
31357;BME280;60001;48.404;11.738;2023-11-19T05:43:16;96098.59;;;8.98;100.00
31357;BME280;60001;48.404;11.738;2023-11-19T05:44:47;96099.13;;;9.00;100.00
31357;BME280;60001;48.404;11.738;2023-11-19T05:46:19;96109.16;;;9.03;100.00
31357;BME280;60001;48.404;11.738;2023-11-19T05:47:51;96102.31;;;9.02;100.00
31357;BME280;60001;48.404;11.738;2023-11-19T05:49:23;96103.97;;;9.08;100.00
31357;BME280;60001;48.404;11.738;2023-11-19T05:50:54;96073.41;;;8.85;100.00
31357;BME280;60001;48.404;11.738;2023-11-19T05:52:26;96101.88;;;9.10;100.00
31357;BME280;60001;48.404;11.738;2023-11-19T05:53:58;96095.59;;;9.11;100.00
31357;BME280;60001;48.404;11.738;2023-11-19T05:55:29;96096.91;;;9.14;100.00
31357;BME280;60001;48.404;11.738;2023-11-19T05:57:01;96100.03;;;9.11;100.00
31357;BME280;60001;48.404;11.738;2023-11-19T05:58:32;96097.38;;;9.11;100.00
31357;BME280;60001;48.404;11.738;2023-11-19T06:00:05;96096.97;;;9.19;100.00
31357;BME280;60001;48.404;11.738;2023-11-19T06:01:36;96094.53;;;9.12;100.00
31357;BME280;60001;48.404;11.738;2023-11-19T06:03:09;96088.94;;;9.09;100.00
31357;BME280;60001;48.404;11.738;2023-11-19T06:04:40;96095.31;;;9.13;100.00
31357;BME280;60001;48.404;11.738;2023-11-19T06:06:14;96087.63;;;9.06;100.00
31357;BME280;60001;48.404;11.738;2023-11-19T06:07:45;96087.69;;;9.11;100.00
31357;BME280;60001;48.404;11.738;2023-11-19T06:09:17;96090.31;;;9.11;100.00
31357;BME280;60001;48.404;11.738;2023-11-19T06:10:49;96087.91;;;9.10;100.00
31357;BME280;60001;48.404;11.738;2023-11-19T06:12:21;96078.47;;;9.14;100.00
31357;BME280;60001;48.404;11.738;2023-11-19T06:13:52;96089.31;;;9.17;100.00
31357;BME280;60001;48.404;11.738;2023-11-19T06:15:24;96088.81;;;9.20;100.00
31357;BME280;60001;48.404;11.738;2023-11-19T06:16:55;96084.16;;;9.27;100.00
31357;BME280;60001;48.404;11.738;2023-11-19T06:18:28;96048.78;;;8.96;100.00
31357;BME280;60001;48.404;11.738;2023-11-19T06:19:59;96101.47;;;9.23;100.00
31357;BME280;60001;48.404;11.738;2023-11-19T06:21:31;96099.91;;;9.22;100.00
31357;BME280;60001;48.404;11.738;2023-11-19T06:23:02;96099.00;;;9.12;100.00
31357;BME280;60001;48.404;11.738;2023-11-19T06:24:33;96103.47;;;9.11;100.00
31357;BME280;60001;48.404;11.738;2023-11-19T06:26:04;96090.00;;;9.07;100.00
31357;BME280;60001;48.404;11.738;2023-11-19T06:27:36;96095.44;;;9.23;100.00
31357;BME280;60001;48.404;11.738;2023-11-19T06:29:07;96088.88;;;9.25;100.00
31357;BME280;60001;48.404;11.738;2023-11-19T06:30:39;96096.28;;;9.28;100.00
31357;BME280;60001;48.404;11.738;2023-11-19T06:32:09;96097.38;;;9.32;100.00
31357;BME280;60001;48.404;11.738;2023-11-19T06:33:42;96096.53;;;9.27;100.00
31357;BME280;60001;48.404;11.738;2023-11-19T06:35:13;96097.59;;;9.31;100.00
31357;BME280;60001;48.404;11.738;2023-11-19T06:36:45;96096.78;;;9.25;100.00
31357;BME280;60001;48.404;11.738;2023-11-19T06:38:16;96107.13;;;9.32;100.00
31357;BME280;60001;48.404;11.738;2023-11-19T06:39:48;96097.41;;;9.38;100.00
31357;BME280;60001;48.404;11.738;2023-11-19T06:41:19;96100.56;;;9.34;100.00
31357;BME280;60001;48.404;11.738;2023-11-19T06:42:51;96102.94;;;9.36;100.00
31357;BME280;60001;48.404;11.738;2023-11-19T06:44:22;96105.13;;;9.44;100.00
31357;BME280;60001;48.404;11.738;2023-11-19T06:45:55;96105.88;;;9.40;100.00
31357;BME280;60001;48.404;11.738;2023-11-19T06:47:26;96118.06;;;9.46;100.00
31357;BME280;60001;48.404;11.738;2023-11-19T06:48:59;96112.75;;;9.41;100.00
31357;BME280;60001;48.404;11.738;2023-11-19T06:50:30;96109.31;;;9.40;100.00
31357;BME280;60001;48.404;11.738;2023-11-19T06:52:03;96113.59;;;9.46;100.00
31357;BME280;60001;48.404;11.738;2023-11-19T06:53:34;96113.16;;;9.54;100.00
31357;BME280;60001;48.404;11.738;2023-11-19T06:55:07;96112.38;;;9.59;100.00
31357;BME280;60001;48.404;11.738;2023-11-19T06:56:38;96106.56;;;9.57;100.00
31357;BME280;60001;48.404;11.738;2023-11-19T06:58:10;96107.69;;;9.61;100.00
31357;BME280;60001;48.404;11.738;2023-11-19T06:59:42;96112.16;;;9.60;100.00
31357;BME280;60001;48.404;11.738;2023-11-19T07:01:13;96111.00;;;9.51;100.00
31357;BME280;60001;48.404;11.738;2023-11-19T07:02:45;96112.03;;;9.50;100.00
31357;BME280;60001;48.404;11.738;2023-11-19T07:04:18;96111.91;;;9.62;100.00
31357;BME280;60001;48.404;11.738;2023-11-19T07:05:49;96098.59;;;9.52;100.00
31357;BME280;60001;48.404;11.738;2023-11-19T07:07:21;96114.28;;;9.64;100.00
31357;BME280;60001;48.404;11.738;2023-11-19T07:08:51;96120.34;;;9.64;100.00
31357;BME280;60001;48.404;11.738;2023-11-19T07:10:23;96111.38;;;9.60;100.00
31357;BME280;60001;48.404;11.738;2023-11-19T07:11:54;96121.66;;;9.61;100.00
31357;BME280;60001;48.404;11.738;2023-11-19T07:13:26;96125.66;;;9.69;100.00
31357;BME280;60001;48.404;11.738;2023-11-19T07:14:58;96124.34;;;9.67;100.00
31357;BME280;60001;48.404;11.738;2023-11-19T07:16:30;96133.38;;;9.76;100.00
31357;BME280;60001;48.404;11.738;2023-11-19T07:18:01;96128.59;;;9.73;100.00
31357;BME280;60001;48.404;11.738;2023-11-19T07:19:34;96119.34;;;9.70;100.00
31357;BME280;60001;48.404;11.738;2023-11-19T07:21:06;96096.75;;;9.52;100.00
31357;BME280;60001;48.404;11.738;2023-11-19T07:22:42;96115.41;;;9.73;100.00
31357;BME280;60001;48.404;11.738;2023-11-19T07:24:13;96123.56;;;9.71;100.00
31357;BME280;60001;48.404;11.738;2023-11-19T07:25:45;96117.81;;;9.74;100.00
31357;BME280;60001;48.404;11.738;2023-11-19T07:27:17;96121.03;;;9.81;100.00
31357;BME280;60001;48.404;11.738;2023-11-19T07:28:49;96128.97;;;9.86;100.00
31357;BME280;60001;48.404;11.738;2023-11-19T07:30:19;96120.72;;;9.78;100.00
31357;BME280;60001;48.404;11.738;2023-11-19T07:31:51;96132.88;;;9.79;100.00
31357;BME280;60001;48.404;11.738;2023-11-19T07:33:22;96136.81;;;9.76;100.00
31357;BME280;60001;48.404;11.738;2023-11-19T07:34:55;96143.97;;;9.81;100.00
31357;BME280;60001;48.404;11.738;2023-11-19T07:36:27;96134.56;;;9.90;100.00
31357;BME280;60001;48.404;11.738;2023-11-19T07:37:58;96141.47;;;9.96;100.00
31357;BME280;60001;48.404;11.738;2023-11-19T07:39:29;96133.50;;;9.91;100.00
31357;BME280;60001;48.404;11.738;2023-11-19T07:41:00;96143.81;;;9.93;100.00
31357;BME280;60001;48.404;11.738;2023-11-19T07:42:32;96142.22;;;9.92;100.00
31357;BME280;60001;48.404;11.738;2023-11-19T07:44:04;96133.25;;;9.93;100.00
31357;BME280;60001;48.404;11.738;2023-11-19T07:45:35;96147.22;;;9.88;100.00
31357;BME280;60001;48.404;11.738;2023-11-19T07:47:06;96148.03;;;9.94;100.00
31357;BME280;60001;48.404;11.738;2023-11-19T07:48:37;96150.75;;;10.04;100.00
31357;BME280;60001;48.404;11.738;2023-11-19T07:50:10;96155.78;;;10.05;100.00
31357;BME280;60001;48.404;11.738;2023-11-19T07:51:43;96158.38;;;10.00;100.00
31357;BME280;60001;48.404;11.738;2023-11-19T07:53:16;96151.81;;;10.03;100.00
31357;BME280;60001;48.404;11.738;2023-11-19T07:54:46;96148.44;;;10.12;100.00
31357;BME280;60001;48.404;11.738;2023-11-19T07:56:18;96154.25;;;10.09;100.00
31357;BME280;60001;48.404;11.738;2023-11-19T07:57:49;96157.69;;;10.15;100.00
31357;BME280;60001;48.404;11.738;2023-11-19T07:59:21;96155.38;;;10.19;100.00
31357;BME280;60001;48.404;11.738;2023-11-19T08:00:52;96152.69;;;10.13;100.00
31357;BME280;60001;48.404;11.738;2023-11-19T08:02:24;96151.09;;;10.12;100.00
31357;BME280;60001;48.404;11.738;2023-11-19T08:03:54;96158.00;;;10.19;100.00
31357;BME280;60001;48.404;11.738;2023-11-19T08:05:28;96142.38;;;10.12;100.00
31357;BME280;60001;48.404;11.738;2023-11-19T08:06:58;96147.53;;;10.24;100.00